Time;durP1;ratioP1;P1;durP2;ratioP2;P2;SDS_P1;SDS_P2;PMS_P1;PMS_P2;Temp;Humidity;BMP_temperature;BMP_pressure;BME280_temperature;BME280_humidity;BME280_pressure;Samples;Min_cycle;Max_cycle;Signal;HPM_P1;HPM_P2
2022/07/10 00:01:39;;;;;;;;;;;;;;;17.81;58.13;100780.34;1671198;84;27490;-61
2022/07/10 00:04:05;;;;;;;;;;;;;;;17.78;58.05;100788.38;1659886;84;26478;-60
2022/07/10 00:06:32;;;;;;;;;;;;;;;17.74;58.32;100787.03;1699505;83;25811;-59
2022/07/10 00:08:58;;;;;;;;;;;;;;;17.72;57.75;100786.36;1691694;83;26826;-57
2022/07/10 00:11:25;;;;;;;;;;;;;;;17.76;57.18;100779.54;1694795;83;25795;-60
2022/07/10 00:13:51;;;;;;;;;;;;;;;17.79;57.58;100778.31;1676882;83;27495;-59
2022/07/10 00:16:18;;;;;;;;;;;;;;;17.80;56.91;100776.77;1688655;83;27241;-58
2022/07/10 00:18:45;;;;;;;;;;;;;;;17.84;57.36;100778.59;1698097;82;25690;-59
2022/07/10 00:21:11;;;;;;;;;;;;;;;17.80;58.16;100774.57;1689716;83;26915;-59
2022/07/10 00:23:38;;;;;;;;;;;;;;;17.78;57.24;100776.13;1691100;83;25744;-59
2022/07/10 00:26:05;;;;;;;;;;;;;;;17.82;56.84;100772.52;1704892;82;28534;-59
2022/07/10 00:28:31;;;;;;;;;;;;;;;17.89;56.99;100772.61;1709955;83;25721;-59
2022/07/10 00:30:57;;;;;;;;;;;;;;;17.93;57.43;100773.94;1693877;82;25816;-59
2022/07/10 00:33:24;;;;;;;;;;;;;;;17.87;57.37;100770.61;1690131;83;26068;-59
2022/07/10 00:35:50;;;;;;;;;;;;;;;17.75;57.87;100770.20;1692936;83;25875;-59
2022/07/10 00:38:16;;;;;;;;;;;;;;;17.66;57.59;100767.53;1689951;83;28315;-59
2022/07/10 00:40:43;;;;;;;;;;;;;;;17.65;57.48;100764.51;1701794;82;25846;-59
2022/07/10 00:43:10;;;;;;;;;;;;;;;17.70;57.43;100768.04;1692996;82;25941;-59
2022/07/10 00:45:36;;;;;;;;;;;;;;;17.72;57.34;100761.05;1697792;83;26119;-60
2022/07/10 00:48:04;;;;;;;;;;;;;;;17.66;57.34;100758.01;1706590;82;25707;-59
2022/07/10 00:50:31;;;;;;;;;;;;;;;17.69;57.18;100764.98;1717926;82;27458;-59
2022/07/10 00:52:58;;;;;;;;;;;;;;;17.64;57.34;100759.23;1709551;82;26481;-59
2022/07/10 00:55:24;;;;;;;;;;;;;;;17.56;58.79;100756.58;1720586;81;25677;-59
2022/07/10 00:57:51;;;;;;;;;;;;;;;17.51;57.63;100755.27;1713820;82;26960;-59
2022/07/10 01:00:18;;;;;;;;;;;;;;;17.53;57.29;100752.36;1677125;83;25884;-59
2022/07/10 01:02:45;;;;;;;;;;;;;;;17.55;58.32;100757.60;1680001;83;27497;-59
2022/07/10 01:05:13;;;;;;;;;;;;;;;17.50;58.65;100757.66;1631540;84;25900;-59
2022/07/10 01:07:39;;;;;;;;;;;;;;;17.43;58.14;100753.11;1674613;84;26574;-59
2022/07/10 01:10:07;;;;;;;;;;;;;;;17.31;59.60;100747.27;1663431;84;26027;-59
2022/07/10 01:12:33;;;;;;;;;;;;;;;17.17;59.00;100748.89;1679305;83;26122;-59
2022/07/10 01:15:35;;;;;;;;;;;;;;;17.09;60.52;100744.34;1696561;82;27554;-59
2022/07/10 01:18:02;;;;;;;;;;;;;;;17.07;60.02;100749.63;1677364;83;25724;-58
2022/07/10 01:20:32;;;;;;;;;;;;;;;17.03;60.38;100743.71;1682769;84;25436;-59
2022/07/10 01:23:00;;;;;;;;;;;;;;;16.98;60.43;100739.34;1687146;83;26182;-59
2022/07/10 01:25:26;;;;;;;;;;;;;;;16.97;60.33;100734.92;1684223;83;25926;-59
2022/07/10 01:27:53;;;;;;;;;;;;;;;16.95;60.31;100731.53;1674809;83;27492;-59
2022/07/10 01:30:20;;;;;;;;;;;;;;;16.92;60.96;100733.20;1686263;83;25868;-60
2022/07/10 01:32:47;;;;;;;;;;;;;;;16.86;61.23;100734.77;1680561;83;25789;-60
2022/07/10 01:35:14;;;;;;;;;;;;;;;16.79;61.55;100735.16;1686537;83;26082;-58
2022/07/10 01:37:40;;;;;;;;;;;;;;;16.72;61.68;100731.80;1684255;83;25430;-60
2022/07/10 01:40:08;;;;;;;;;;;;;;;16.66;61.75;100733.02;1658520;85;27573;-60
2022/07/10 01:42:35;;;;;;;;;;;;;;;16.61;62.84;100735.42;1654498;85;25810;-60
2022/07/10 01:45:01;;;;;;;;;;;;;;;16.55;63.04;100736.45;1653766;85;25648;-60
2022/07/10 01:47:28;;;;;;;;;;;;;;;16.53;63.21;100743.09;1649127;86;26082;-60
2022/07/10 01:49:54;;;;;;;;;;;;;;;16.51;63.27;100737.84;1644829;86;25886;-60
2022/07/10 01:52:22;;;;;;;;;;;;;;;16.51;62.58;100736.48;1651002;85;27551;-60
2022/07/10 01:54:49;;;;;;;;;;;;;;;16.53;62.43;100734.45;1647631;86;25782;-60
2022/07/10 01:57:16;;;;;;;;;;;;;;;16.55;62.52;100739.16;1648655;86;26007;-60
2022/07/10 01:59:42;;;;;;;;;;;;;;;16.57;62.84;100738.48;1651141;85;26297;-60
2022/07/10 02:02:09;;;;;;;;;;;;;;;16.58;62.46;100740.18;1627603;87;25506;-60
2022/07/10 02:04:41;;;;;;;;;;;;;;;16.57;62.86;100737.65;1634643;87;29028;-60
2022/07/10 02:07:09;;;;;;;;;;;;;;;16.57;62.95;100742.55;1616478;87;25766;-60
2022/07/10 02:09:37;;;;;;;;;;;;;;;16.60;62.95;100739.99;1619334;87;25859;-60
2022/07/10 02:12:05;;;;;;;;;;;;;;;16.62;62.25;100742.03;1628743;87;26148;-60
2022/07/10 02:14:31;;;;;;;;;;;;;;;16.67;62.25;100738.29;1622950;87;25878;-60
2022/07/10 02:16:58;;;;;;;;;;;;;;;16.71;61.89;100740.13;1623037;87;27537;-60
2022/07/10 02:19:25;;;;;;;;;;;;;;;16.79;61.60;100737.38;1620038;87;26017;-60
2022/07/10 02:21:51;;;;;;;;;;;;;;;16.86;61.25;100735.63;1628504;87;25770;-60
2022/07/10 02:24:19;;;;;;;;;;;;;;;16.90;61.41;100736.11;1613685;87;26858;-58
2022/07/10 02:26:45;;;;;;;;;;;;;;;16.93;61.34;100739.88;1629011;87;25971;-60
2022/07/10 02:29:11;;;;;;;;;;;;;;;16.98;61.07;100743.41;1625461;87;27507;-60
2022/07/10 02:31:41;;;;;;;;;;;;;;;17.03;60.92;100739.11;1630304;87;25821;-60
2022/07/10 02:34:08;;;;;;;;;;;;;;;17.08;60.83;100731.77;1622951;86;25958;-60
2022/07/10 02:36:36;;;;;;;;;;;;;;;17.13;60.53;100743.47;1625501;87;26352;-60
2022/07/10 02:39:03;;;;;;;;;;;;;;;17.18;60.42;100736.98;1617097;87;25481;-60
2022/07/10 02:41:29;;;;;;;;;;;;;;;17.22;60.42;100738.30;1620177;87;27012;-60
2022/07/10 02:43:56;;;;;;;;;;;;;;;17.27;60.30;100737.77;1610648;88;27219;-60
2022/07/10 02:46:23;;;;;;;;;;;;;;;17.29;60.31;100736.58;1617385;86;25898;-60
2022/07/10 02:48:49;;;;;;;;;;;;;;;17.34;60.62;100733.31;1611642;87;26228;-60
2022/07/10 02:51:16;;;;;;;;;;;;;;;17.30;60.29;100724.65;1648106;86;25988;-60
2022/07/10 02:53:42;;;;;;;;;;;;;;;17.32;60.05;100735.36;1629638;86;27560;-60
2022/07/10 02:56:09;;;;;;;;;;;;;;;17.29;60.45;100735.72;1649196;85;26480;-58
2022/07/10 02:58:37;;;;;;;;;;;;;;;17.26;60.88;100739.65;1666374;84;25885;-61
2022/07/10 03:01:05;;;;;;;;;;;;;;;17.21;60.44;100740.72;1657074;85;26165;-59
2022/07/10 03:03:32;;;;;;;;;;;;;;;17.14;60.70;100741.95;1659032;85;25875;-59
2022/07/10 03:05:59;;;;;;;;;;;;;;;17.06;61.18;100746.08;1657549;84;28402;-59
2022/07/10 03:08:26;;;;;;;;;;;;;;;17.02;61.10;100749.67;1653250;86;25788;-59
2022/07/10 03:10:53;;;;;;;;;;;;;;;17.05;61.31;100752.53;1654954;86;25781;-59
2022/07/10 03:13:19;;;;;;;;;;;;;;;17.08;61.47;100751.33;1654516;86;26862;-59
2022/07/10 03:15:45;;;;;;;;;;;;;;;17.12;61.29;100749.95;1640342;86;25777;-59
2022/07/10 03:18:12;;;;;;;;;;;;;;;17.17;60.91;100745.64;1674038;84;27504;-59
2022/07/10 03:20:39;;;;;;;;;;;;;;;17.21;61.53;100742.91;1654471;85;26033;-60
2022/07/10 03:23:06;;;;;;;;;;;;;;;17.21;61.10;100740.19;1648863;86;25781;-58
2022/07/10 03:25:32;;;;;;;;;;;;;;;17.22;61.43;100743.74;1651021;85;26116;-60
2022/07/10 03:27:59;;;;;;;;;;;;;;;17.26;61.44;100753.23;1647959;85;25724;-60
2022/07/10 03:30:25;;;;;;;;;;;;;;;17.31;61.03;100750.81;1651610;84;27502;-59
2022/07/10 03:32:51;;;;;;;;;;;;;;;17.34;61.01;100753.70;1676007;84;27192;-60
2022/07/10 03:35:18;;;;;;;;;;;;;;;17.29;61.28;100749.31;1624157;86;25872;-60
2022/07/10 03:37:45;;;;;;;;;;;;;;;17.30;61.00;100751.00;1637150;85;26211;-60
2022/07/10 03:40:12;;;;;;;;;;;;;;;17.26;61.44;100753.23;1638647;86;25832;-59
2022/07/10 03:42:38;;;;;;;;;;;;;;;17.20;61.75;100763.48;1659522;85;28717;-60
2022/07/10 03:45:06;;;;;;;;;;;;;;;17.16;61.86;100758.93;1654971;85;25790;-59
2022/07/10 03:47:33;;;;;;;;;;;;;;;17.18;61.36;100758.21;1645187;85;25864;-60
2022/07/10 03:50:00;;;;;;;;;;;;;;;17.21;61.62;100752.42;1657596;85;26235;-60
2022/07/10 03:52:26;;;;;;;;;;;;;;;17.21;61.75;100749.70;1647148;85;25807;-59
2022/07/10 03:54:54;;;;;;;;;;;;;;;17.24;61.75;100749.02;1646144;85;27489;-60
2022/07/10 04:00:07;;;;;;;;;;;;;;;17.42;61.14;100740.05;1599383;88;25871;-59
2022/07/10 04:02:36;;;;;;;;;;;;;;;17.49;61.33;100741.50;1592388;88;26264;-59
2022/07/10 04:05:07;;;;;;;;;;;;;;;17.49;61.15;100745.08;1598879;88;25781;-59
2022/07/10 04:07:36;;;;;;;;;;;;;;;17.49;61.01;100741.50;1612721;87;27640;-58
2022/07/10 04:10:03;;;;;;;;;;;;;;;17.49;61.08;100738.78;1610522;86;25866;-59
2022/07/10 04:12:30;;;;;;;;;;;;;;;17.49;61.32;100736.92;1607021;87;25532;-59
2022/07/10 04:14:56;;;;;;;;;;;;;;;17.53;60.94;100733.32;1610800;86;26329;-60
2022/07/10 04:17:23;;;;;;;;;;;;;;;17.53;60.79;100742.31;1613401;86;25803;-59
2022/07/10 04:19:50;;;;;;;;;;;;;;;17.51;60.79;100736.23;1624416;86;27360;-61
2022/07/10 04:22:17;;;;;;;;;;;;;;;17.46;60.82;100738.64;1618447;87;26237;-59
2022/07/10 04:24:43;;;;;;;;;;;;;;;17.41;60.82;100741.56;1621201;87;25899;-59
2022/07/10 04:27:10;;;;;;;;;;;;;;;17.43;60.73;100737.66;1631045;87;26128;-59
2022/07/10 04:29:36;;;;;;;;;;;;;;;17.51;60.64;100740.81;1622589;86;25771;-59
2022/07/10 04:32:04;;;;;;;;;;;;;;;17.52;60.56;100737.93;1620031;86;27564;-59
2022/07/10 04:34:31;;;;;;;;;;;;;;;17.50;60.41;100728.23;1617301;85;25993;-59
2022/07/10 04:36:58;;;;;;;;;;;;;;;17.54;60.22;100730.94;1614058;86;25912;-59
2022/07/10 04:39:25;;;;;;;;;;;;;;;17.59;60.18;100726.30;1613518;87;26126;-59
2022/07/10 04:41:51;;;;;;;;;;;;;;;17.64;60.18;100727.45;1619145;88;25485;-59
2022/07/10 04:44:18;;;;;;;;;;;;;;;17.75;59.94;100726.15;1615883;86;28279;-59
2022/07/10 04:46:45;;;;;;;;;;;;;;;17.86;59.73;100722.66;1638311;85;25782;-59
2022/07/10 04:51:58;;;;;;;;;;;;;;;18.02;59.12;100719.78;1653787;84;25899;-59
2022/07/10 04:54:25;;;;;;;;;;;;;;;18.17;59.07;100712.99;1647498;86;27244;-60
2022/07/10 04:56:51;;;;;;;;;;;;;;;18.33;59.13;100713.83;1651526;86;27581;-60
2022/07/10 04:59:18;;;;;;;;;;;;;;;18.45;58.90;100710.42;1679266;84;25894;-59
2022/07/10 05:01:44;;;;;;;;;;;;;;;18.54;58.52;100704.87;1686048;83;25763;-59
2022/07/10 05:04:12;;;;;;;;;;;;;;;18.61;58.40;100709.38;1684454;84;26980;-59
2022/07/10 05:06:40;;;;;;;;;;;;;;;18.75;57.73;100698.63;1678216;83;26458;-60
2022/07/10 05:09:07;;;;;;;;;;;;;;;18.87;56.73;100697.09;1657644;85;28141;-59
2022/07/10 05:11:33;;;;;;;;;;;;;;;18.96;56.76;100693.73;1654487;86;25829;-59
2022/07/10 05:13:59;;;;;;;;;;;;;;;19.07;56.36;100694.59;1643382;85;25914;-59
2022/07/10 05:16:26;;;;;;;;;;;;;;;19.12;55.97;100695.91;1647230;86;26177;-59
2022/07/10 05:18:53;;;;;;;;;;;;;;;19.16;55.73;100702.14;1646521;85;25874;-59
2022/07/10 05:21:19;;;;;;;;;;;;;;;19.20;55.58;100699.34;1644589;85;27529;-60
2022/07/10 05:23:46;;;;;;;;;;;;;;;19.21;55.53;100701.03;1643972;85;25802;-59
2022/07/10 05:26:13;;;;;;;;;;;;;;;19.24;55.67;100701.15;1646772;85;25954;-60
2022/07/10 05:28:40;;;;;;;;;;;;;;;19.27;55.50;100697.22;1653191;85;26129;-59
2022/07/10 05:31:06;;;;;;;;;;;;;;;19.29;55.58;100692.38;1648650;84;25804;-59
2022/07/10 05:33:33;;;;;;;;;;;;;;;19.31;55.45;100698.49;1652788;85;27502;-58
2022/07/10 05:36:00;;;;;;;;;;;;;;;19.33;55.62;100694.52;1652413;84;25815;-59
2022/07/10 05:38:27;;;;;;;;;;;;;;;19.37;55.82;100691.73;1666274;84;25478;-59
2022/07/10 05:40:54;;;;;;;;;;;;;;;19.44;55.79;100683.63;1676169;84;26132;-59
2022/07/10 05:43:20;;;;;;;;;;;;;;;19.51;55.25;100682.29;1666742;84;25961;-59
2022/07/10 05:45:47;;;;;;;;;;;;;;;19.55;54.97;100684.95;1662945;84;27554;-59
2022/07/10 05:48:14;;;;;;;;;;;;;;;19.60;54.01;100679.73;1649892;85;25728;-59
2022/07/10 05:50:40;;;;;;;;;;;;;;;19.66;54.34;100680.83;1647294;85;26616;-59
2022/07/10 05:53:07;;;;;;;;;;;;;;;19.73;54.12;100684.45;1678611;84;26781;-60
2022/07/10 05:55:33;;;;;;;;;;;;;;;19.82;53.92;100682.42;1657360;84;25785;-60
2022/07/10 05:58:02;;;;;;;;;;;;;;;19.88;53.78;100683.02;1654785;85;27471;-60
2022/07/10 06:00:30;;;;;;;;;;;;;;;19.92;53.29;100677.99;1628241;86;26297;-60
2022/07/10 06:02:57;;;;;;;;;;;;;;;19.96;53.32;100677.39;1612872;87;25471;-60
2022/07/10 06:05:24;;;;;;;;;;;;;;;20.05;52.84;100677.23;1649476;85;26182;-59
2022/07/10 06:07:51;;;;;;;;;;;;;;;20.12;51.87;100674.86;1628959;86;25820;-60
2022/07/10 06:10:18;;;;;;;;;;;;;;;20.19;51.83;100672.18;1653805;86;28329;-60
2022/07/10 06:12:44;;;;;;;;;;;;;;;20.19;51.33;100669.45;1660570;84;25909;-59
2022/07/10 06:15:11;;;;;;;;;;;;;;;20.20;51.50;100670.27;1658373;85;25773;-60
2022/07/10 06:17:37;;;;;;;;;;;;;;;20.22;51.57;100663.56;1653407;85;26142;-60
2022/07/10 06:20:09;;;;;;;;;;;;;;;20.26;51.15;100662.66;1659389;84;25808;-60
2022/07/10 06:22:35;;;;;;;;;;;;;;;20.30;51.14;100663.41;1662702;85;27490;-60
2022/07/10 06:25:07;;;;;;;;;;;;;;;20.41;51.25;100663.84;1659091;84;25804;-60
2022/07/10 06:27:34;;;;;;;;;;;;;;;20.44;51.01;100659.36;1664295;85;25774;-60
2022/07/10 06:30:00;;;;;;;;;;;;;;;20.41;50.32;100660.61;1653734;85;27172;-60
2022/07/10 06:32:27;;;;;;;;;;;;;;;20.44;50.46;100653.89;1661079;85;25799;-60
2022/07/10 06:34:54;;;;;;;;;;;;;;;20.51;50.65;100657.48;1647226;85;27467;-60
2022/07/10 06:37:21;;;;;;;;;;;;;;;20.55;50.62;100648.34;1627493;86;25716;-60
2022/07/10 06:39:48;;;;;;;;;;;;;;;20.57;50.43;100648.48;1655573;86;25786;-59
2022/07/10 06:42:14;;;;;;;;;;;;;;;20.66;50.17;100642.83;1654131;86;26104;-59
2022/07/10 06:44:45;;;;;;;;;;;;;;;20.73;49.88;100639.58;1680839;84;25798;-59
2022/07/10 06:50:07;;;;;;;;;;;;;;;20.85;49.89;100642.04;1687008;82;25922;-61
2022/07/10 06:52:34;;;;;;;;;;;;;;;20.87;49.63;100635.84;1707210;83;25747;-59
2022/07/10 06:55:02;;;;;;;;;;;;;;;20.88;49.44;100643.54;1700946;83;26101;-59
2022/07/10 06:57:29;;;;;;;;;;;;;;;20.90;49.36;100640.05;1694715;83;25827;-59
2022/07/10 06:59:55;;;;;;;;;;;;;;;20.92;49.32;100644.80;1682194;84;27498;-59
2022/07/10 07:02:22;;;;;;;;;;;;;;;20.89;49.09;100643.83;1650750;86;25782;-59
2022/07/10 07:04:49;;;;;;;;;;;;;;;20.97;48.22;100636.83;1629061;87;25863;-59
2022/07/10 07:07:16;;;;;;;;;;;;;;;21.09;47.72;100633.77;1646593;85;26101;-59
2022/07/10 07:09:43;;;;;;;;;;;;;;;21.16;47.78;100634.31;1652939;85;25955;-59
2022/07/10 07:12:10;;;;;;;;;;;;;;;21.21;47.48;100633.98;1662045;85;28277;-59
2022/07/10 07:14:36;;;;;;;;;;;;;;;21.22;47.48;100630.19;1654687;85;25892;-59
2022/07/10 07:17:11;;;;;;;;;;;;;;;21.25;47.50;100632.52;1644470;85;25787;-60
2022/07/10 07:25:08;;;;;;;;;;;;;;;21.40;47.40;100616.40;1641341;85;27621;-59
2022/07/10 07:27:35;;;;;;;;;;;;;;;21.50;46.62;100601.76;1635364;85;25964;-57
2022/07/10 07:30:07;;;;;;;;;;;;;;;21.60;45.56;100597.78;1631331;86;25826;-59
2022/07/10 07:32:34;;;;;;;;;;;;;;;21.76;46.29;100603.33;1635752;86;26922;-59
2022/07/10 07:35:01;;;;;;;;;;;;;;;21.82;46.04;100592.37;1642186;85;25715;-59
2022/07/10 07:37:42;;;;;;;;;;;;;;;21.86;46.16;100582.64;1646037;85;27888;-59
2022/07/10 07:40:11;;;;;;;;;;;;;;;21.93;45.80;100589.98;1643221;86;25461;-59
2022/07/10 07:42:38;;;;;;;;;;;;;;;22.00;44.47;100591.66;1637584;85;25782;-59
2022/07/10 07:45:06;;;;;;;;;;;;;;;22.06;45.11;100596.80;1638740;85;26206;-59
2022/07/10 07:47:57;;;;;;;;;;;;;;;22.08;45.09;100596.06;1646684;85;25521;-60
2022/07/10 07:50:27;;;;;;;;;;;;;;;22.17;44.46;100592.53;1648831;85;28205;-60
2022/07/10 07:52:54;;;;;;;;;;;;;;;22.25;44.14;100585.98;1655302;86;25919;-59
2022/07/10 07:55:21;;;;;;;;;;;;;;;22.32;44.09;100585.41;1660573;85;25849;-60
2022/07/10 07:57:53;;;;;;;;;;;;;;;22.40;44.09;100589.29;1646746;85;26092;-60
2022/07/10 08:00:24;;;;;;;;;;;;;;;22.53;41.65;100588.38;1618351;87;25910;-59
2022/07/10 08:02:52;;;;;;;;;;;;;;;22.62;42.51;100584.85;1604203;88;27496;-60
2022/07/10 08:05:19;;;;;;;;;;;;;;;22.73;41.92;100584.12;1615359;86;25771;-60
2022/07/10 08:07:48;;;;;;;;;;;;;;;22.89;41.58;100584.66;1622904;86;25957;-62
2022/07/10 08:10:18;;;;;;;;;;;;;;;23.06;42.51;100584.42;1607834;87;26119;-60
2022/07/10 08:12:48;;;;;;;;;;;;;;;23.22;42.46;100572.05;1617846;86;25508;-60
2022/07/10 08:15:17;;;;;;;;;;;;;;;23.37;42.05;100573.07;1619435;86;28224;-60
2022/07/10 08:17:47;;;;;;;;;;;;;;;23.57;40.95;100566.54;1633875;85;25791;-60
2022/07/10 08:20:13;;;;;;;;;;;;;;;23.79;39.83;100566.92;1678040;84;25804;-59
2022/07/10 08:22:41;;;;;;;;;;;;;;;23.99;39.83;100568.63;1677995;84;26865;-60
2022/07/10 08:25:09;;;;;;;;;;;;;;;24.14;39.36;100567.69;1667027;83;25793;-60
2022/07/10 08:27:37;;;;;;;;;;;;;;;24.38;37.78;100566.43;1665751;83;27523;-60
2022/07/10 08:30:08;;;;;;;;;;;;;;;24.49;37.93;100553.23;1674519;83;27135;-61
2022/07/10 08:32:36;;;;;;;;;;;;;;;24.63;38.02;100554.42;1678531;84;25663;-59
2022/07/10 08:35:04;;;;;;;;;;;;;;;24.73;37.25;100547.85;1667109;84;26053;-61
2022/07/10 08:37:34;;;;;;;;;;;;;;;24.85;35.78;100551.44;1678910;84;25798;-60
2022/07/10 08:40:01;;;;;;;;;;;;;;;24.94;35.82;100544.22;1671137;83;27518;-60
2022/07/10 08:42:27;;;;;;;;;;;;;;;24.98;36.01;100546.80;1676884;84;25729;-60
2022/07/10 08:44:53;;;;;;;;;;;;;;;24.98;36.18;100551.75;1672552;83;25880;-60
2022/07/10 08:47:25;;;;;;;;;;;;;;;25.18;36.51;100536.81;1673424;84;26021;-60
2022/07/10 08:49:51;;;;;;;;;;;;;;;25.31;36.32;100531.59;1672052;84;26221;-59
2022/07/10 08:52:40;;;;;;;;;;;;;;;25.46;36.14;100543.53;1666174;83;27497;-60
2022/07/10 08:55:07;;;;;;;;;;;;;;;25.58;35.17;100540.76;1659832;84;25767;-59
2022/07/10 08:57:35;;;;;;;;;;;;;;;25.66;33.39;100534.88;1681728;83;25510;-60
2022/07/10 09:00:01;;;;;;;;;;;;;;;25.81;34.20;100531.61;1707024;81;26101;-60
2022/07/10 09:02:28;;;;;;;;;;;;;;;26.02;33.29;100530.66;1718107;81;25859;-60
2022/07/10 09:04:55;;;;;;;;;;;;;;;26.18;33.42;100535.41;1706049;81;27538;-60
2022/07/10 09:07:22;;;;;;;;;;;;;;;26.38;33.64;100536.33;1712353;82;25807;-60
2022/07/10 09:09:57;;;;;;;;;;;;;;;26.49;32.26;100533.75;1679235;82;25816;-60
2022/07/10 09:12:25;;;;;;;;;;;;;;;26.55;32.00;100531.38;1705079;82;26733;-60
2022/07/10 09:14:52;;;;;;;;;;;;;;;26.85;32.88;100529.70;1709978;83;25786;-60
2022/07/10 09:17:18;;;;;;;;;;;;;;;27.17;33.07;100521.36;1703005;82;28397;-60
2022/07/10 09:19:45;;;;;;;;;;;;;;;27.44;33.45;100514.61;1705119;83;25761;-61
2022/07/10 09:22:14;;;;;;;;;;;;;;;27.41;32.57;100518.39;1704826;83;25747;-60
2022/07/10 09:24:44;;;;;;;;;;;;;;;27.31;32.71;100517.69;1691888;83;26132;-60
2022/07/10 09:27:14;;;;;;;;;;;;;;;27.20;32.11;100513.95;1663983;84;25761;-60
2022/07/10 09:29:50;;;;;;;;;;;;;;;27.15;31.85;100513.34;1667681;84;28283;-60
2022/07/10 09:32:17;;;;;;;;;;;;;;;27.30;31.47;100505.82;1670594;84;26143;-60
2022/07/10 09:34:46;;;;;;;;;;;;;;;27.43;31.72;100514.87;1670226;84;25785;-61
2022/07/10 09:37:24;;;;;;;;;;;;;;;27.70;30.51;100509.41;1668675;84;26090;-61
2022/07/10 09:39:56;;;;;;;;;;;;;;;27.73;30.68;100510.29;1670109;84;26186;-61
2022/07/10 09:42:32;;;;;;;;;;;;;;;27.69;31.09;100506.35;1668806;84;28168;-61
2022/07/10 09:45:16;;;;;;;;;;;;;;;27.67;29.66;100504.95;1668763;84;25866;-61
2022/07/10 09:47:55;;;;;;;;;;;;;;;27.41;30.72;100512.31;1643391;85;25865;-61
2022/07/10 09:50:28;;;;;;;;;;;;;;;27.46;30.89;100506.05;1653631;85;27114;-61
2022/07/10 09:53:03;;;;;;;;;;;;;;;27.94;31.08;100497.53;1657064;85;25768;-61
2022/07/10 09:55:32;;;;;;;;;;;;;;;28.48;30.11;100490.36;1652919;85;27593;-61
2022/07/10 09:58:07;;;;;;;;;;;;;;;28.71;29.42;100484.20;1616190;85;26342;-60
2022/07/10 10:00:40;;;;;;;;;;;;;;;28.36;30.83;100496.59;1642426;86;26413;-61
2022/07/10 10:03:09;;;;;;;;;;;;;;;28.01;31.21;100493.20;1644776;86;26587;-61
2022/07/10 10:05:57;;;;;;;;;;;;;;;28.02;31.61;100482.40;1594156;86;25753;-60
2022/07/10 10:08:30;;;;;;;;;;;;;;;27.89;31.40;100478.67;1646235;85;27486;-61
2022/07/10 10:10:58;;;;;;;;;;;;;;;27.96;31.30;100477.39;1616756;87;25810;-61
2022/07/10 10:13:30;;;;;;;;;;;;;;;27.62;32.14;100475.33;1652401;86;25959;-61
2022/07/10 10:15:57;;;;;;;;;;;;;;;28.06;32.36;100472.50;1652973;86;26113;-60
2022/07/10 10:18:25;;;;;;;;;;;;;;;28.76;30.86;100475.95;1634461;86;25780;-60
2022/07/10 10:20:56;;;;;;;;;;;;;;;29.10;29.52;100465.92;1615864;86;27540;-61
2022/07/10 10:23:25;;;;;;;;;;;;;;;29.53;29.69;100465.89;1637829;85;25744;-60
2022/07/10 10:25:54;;;;;;;;;;;;;;;29.77;28.61;100465.41;1611909;86;25805;-61
2022/07/10 10:28:23;;;;;;;;;;;;;;;29.96;28.02;100467.14;1613496;87;26180;-60
2022/07/10 10:30:53;;;;;;;;;;;;;;;30.45;28.24;100467.20;1619789;86;25770;-62
2022/07/10 10:33:35;;;;;;;;;;;;;;;31.19;26.53;100460.77;1608000;87;27595;-60
2022/07/10 10:36:05;;;;;;;;;;;;;;;31.66;25.45;100460.59;1615305;87;25487;-61
2022/07/10 10:38:58;;;;;;;;;;;;;;;32.25;24.15;100459.43;1612794;87;25899;-61
2022/07/10 10:41:33;;;;;;;;;;;;;;;32.38;23.32;100458.78;1638986;85;26277;-61
2022/07/10 10:44:13;;;;;;;;;;;;;;;32.72;23.68;100459.89;1605341;87;25930;-60
2022/07/10 10:47:09;;;;;;;;;;;;;;;33.14;23.47;100451.94;1619615;86;27431;-60
2022/07/10 10:49:50;;;;;;;;;;;;;;;33.50;22.19;100466.31;1644009;85;25519;-61
2022/07/10 10:52:17;;;;;;;;;;;;;;;33.52;23.33;100459.03;1610832;86;25860;-61
2022/07/10 10:55:02;;;;;;;;;;;;;;;34.16;23.79;100441.39;1619007;87;26113;-60
2022/07/10 10:57:44;;;;;;;;;;;;;;;34.38;22.18;100448.88;1614989;86;25654;-61
2022/07/10 11:00:11;;;;;;;;;;;;;;;33.14;21.88;100450.54;1612109;87;28307;-61
2022/07/10 11:02:44;;;;;;;;;;;;;;;33.36;22.71;100449.48;1613637;86;25752;-61
2022/07/10 11:05:18;;;;;;;;;;;;;;;33.91;22.24;100451.00;1642433;85;25676;-61
2022/07/10 11:07:56;;;;;;;;;;;;;;;33.35;22.13;100443.64;1667635;84;26150;-60
2022/07/10 11:10:41;;;;;;;;;;;;;;;32.67;22.25;100435.70;1633455;86;25507;-59
2022/07/10 11:13:13;;;;;;;;;;;;;;;32.45;21.81;100437.58;1660279;85;27605;-60
2022/07/10 11:15:44;;;;;;;;;;;;;;;33.04;20.94;100437.56;1661728;85;25793;-60
2022/07/10 11:18:18;;;;;;;;;;;;;;;33.57;20.58;100431.10;1631825;85;25774;-60
2022/07/10 11:20:51;;;;;;;;;;;;;;;34.21;19.23;100425.70;1640879;85;26122;-61
2022/07/10 11:23:50;;;;;;;;;;;;;;;34.85;19.26;100432.15;1664793;85;25522;-61
2022/07/10 11:26:37;;;;;;;;;;;;;;;35.34;17.25;100436.20;1666945;84;27530;-61
2022/07/10 11:29:07;;;;;;;;;;;;;;;35.69;17.52;100424.00;1644977;85;25748;-61
2022/07/10 11:31:39;;;;;;;;;;;;;;;36.49;16.52;100412.31;1648713;85;25793;-60
2022/07/10 11:34:03;;;;;;;;;;;;;;;36.70;17.07;100413.17;1634366;85;26342;-62
2022/07/10 11:36:32;;;;;;;;;;;;;;;36.93;16.74;100411.16;1600621;87;43267;-60
2022/07/10 11:39:04;;;;;;;;;;;;;;;37.23;16.19;100406.38;1613950;86;27575;-62
2022/07/10 11:41:31;;;;;;;;;;;;;;;37.20;16.49;100398.05;1633947;85;25756;-61
2022/07/10 11:44:00;;;;;;;;;;;;;;;36.95;16.24;100415.84;1615819;87;25749;-61
2022/07/10 11:46:32;;;;;;;;;;;;;;;36.79;17.25;100403.39;1636416;86;26094;-62
2022/07/10 11:49:05;;;;;;;;;;;;;;;36.66;16.27;100405.14;1619190;86;25764;-62
2022/07/10 11:51:33;;;;;;;;;;;;;;;35.84;17.55;100399.63;1628265;86;28543;-62
2022/07/10 11:54:10;;;;;;;;;;;;;;;35.94;17.53;100408.36;1607996;86;25918;-61
2022/07/10 11:56:41;;;;;;;;;;;;;;;36.49;17.42;100407.27;1628885;87;25922;-61
2022/07/10 11:59:09;;;;;;;;;;;;;;;36.40;16.55;100395.19;1620952;86;26260;-61
2022/07/10 12:01:45;;;;;;;;;;;;;;;36.08;17.17;100399.91;1618362;86;25741;-61
2022/07/10 12:04:14;;;;;;;;;;;;;;;36.39;16.20;100401.34;1631378;87;27760;-62
2022/07/10 12:06:43;;;;;;;;;;;;;;;36.60;15.71;100393.25;1610389;86;25911;-61
2022/07/10 12:09:15;;;;;;;;;;;;;;;36.61;16.54;100397.70;1607929;87;25948;-62
2022/07/10 12:11:43;;;;;;;;;;;;;;;37.02;16.18;100384.55;1606845;87;26101;-61
2022/07/10 12:14:17;;;;;;;;;;;;;;;36.27;16.76;100392.14;1607703;87;25871;-60
2022/07/10 12:16:45;;;;;;;;;;;;;;;35.44;17.74;100395.21;1641088;86;27500;-60
2022/07/10 12:19:16;;;;;;;;;;;;;;;34.66;18.22;100397.29;1645019;86;25705;-60
2022/07/10 12:21:44;;;;;;;;;;;;;;;33.83;19.42;100402.84;1648855;86;25512;-60
2022/07/10 12:24:13;;;;;;;;;;;;;;;33.50;20.72;100400.80;1648941;86;26093;-61
2022/07/10 12:26:41;;;;;;;;;;;;;;;33.77;21.08;100402.63;1642024;86;25873;-60
2022/07/10 12:29:20;;;;;;;;;;;;;;;34.14;20.83;100396.23;1667811;83;28558;-61
2022/07/10 12:31:48;;;;;;;;;;;;;;;34.15;20.82;100404.87;1672284;84;26325;-60
2022/07/10 12:34:14;;;;;;;;;;;;;;;34.78;20.60;100396.23;1667904;85;25455;-60
2022/07/10 12:36:50;;;;;;;;;;;;;;;35.59;19.61;100392.09;1662041;84;26933;-61
2022/07/10 12:39:23;;;;;;;;;;;;;;;35.96;19.18;100389.28;1643716;84;25819;-61
2022/07/10 12:42:04;;;;;;;;;;;;;;;36.61;18.93;100387.09;1662378;84;27681;-60
2022/07/10 12:44:39;;;;;;;;;;;;;;;37.17;18.48;100390.28;1668420;83;25823;-61
2022/07/10 12:47:11;;;;;;;;;;;;;;;37.48;18.19;100384.34;1662131;84;25849;-61
2022/07/10 12:49:52;;;;;;;;;;;;;;;37.70;18.19;100391.19;1655371;84;26292;-60
2022/07/10 12:52:38;;;;;;;;;;;;;;;38.28;17.43;100383.98;1665190;84;25917;-61
2022/07/10 12:55:09;;;;;;;;;;;;;;;38.46;17.73;100392.40;1667807;84;27717;-60
2022/07/10 12:57:55;;;;;;;;;;;;;;;37.54;17.65;100378.81;1666063;84;25888;-61
2022/07/10 13:00:29;;;;;;;;;;;;;;;37.22;17.77;100384.51;1676671;84;25857;-61